Weather observations for the past three days for
Boone Municipal
Metric (Imperial)
Date Time (cdt) Wind (kph) Vis. (km) Weather Sky Cond. Temperature (ºC) Relative Humidity Wind Chill (°C) Heat Index (°C) Pressure Precipitation (cm)
Air Dwpt 6 hour altimeter (cm) sea level (mb) 1 hr 3 hr 6 hr
Max. Min.
02 15:15 SW 17 16.09 Fair CLR 16 -3 27% 76.3 0.0
02 14:35 Vrbl 6 G 22 16.09 Fair CLR 16 -4 25% 76.35 0.0
02 14:15 W 13 16.09 Fair CLR 15 -3 29% 76.38 0.0
02 13:55 W 15 G 24 16.09 Fair CLR 15 -4 27% 76.4 0.0
02 13:35 W 13 G 24 16.09 Fair CLR 14 -4 29% 76.43 0.0
02 13:15 SW 17 16.09 Fair CLR 14 -4 29% 76.43 0.0
02 12:55 W 17 16.09 Fair CLR 14 -4 29% 76.45 0.0
02 12:35 Vrbl 6 G 20 16.09 Fair CLR 13 -4 31% 76.48 0.0
02 12:15 NW 19 16.09 Fair CLR 13 -3 33% 76.48 0.0
02 11:55 Vrbl 11 G 26 16.09 Fair CLR 13 -4 31% 76.5 0.0
02 11:35 Vrbl 9 G 22 16.09 Fair CLR 12 -4 33% 76.5 0.0
02 11:15 Calm 16.09 Fair CLR 12 -4 33% 76.53 0.0
02 10:55 Vrbl 7 G 19 11.27 Fair CLR 11 -4 35% 76.53 0.0
02 10:35 W 7 G 19 16.09 Fair CLR 11 -4 35% 76.53 0.0
02 10:15 NW 19 16.09 Fair CLR 11 -4 35% 76.53 0.0
02 09:55 Vrbl 7 16.09 Fair CLR 11 -3 38% 76.53 0.0
02 09:35 W 11 16.09 Fair CLR 10 -3 40% 9 76.56 0.0
02 09:15 NW 9 16.09 Fair CLR 10 -3 40% 9 76.56 0.0
02 08:55 Vrbl 7 16.09 Fair CLR 9 -3 43% 8 76.56 0.0
02 08:35 Calm 16.09 Fair CLR 8 -2 50% 76.56 0.0
02 08:20 Calm 16.09 Fair CLR 7 -1 57% 76.56 0.0
02 07:35 N 7 16.09 Fair CLR 4 -1 70% 2 76.53 0.0
02 07:15 Calm 16.09 Fair CLR 3 -2 70% 76.53 0.0
02 06:55 NW 7 16.09 Fair CLR 3 -3 65% 1 76.53 0.0
02 06:35 NW 7 16.09 Fair CLR 3 -3 65% 1 76.5 0.0
02 06:15 NW 7 16.09 Fair CLR 3 -3 65% 1 76.5 0.0
02 05:55 N 7 16.09 Fair CLR 2 -3 70% 0 76.48 0.0
02 05:35 NW 7 16.09 Fair CLR 2 -3 70% 0 76.48 0.0
02 05:15 NW 7 16.09 Fair CLR 3 -3 65% 1 76.48 0.0
02 04:55 N 7 16.09 Fair CLR 3 -3 65% 1 76.48 0.0
02 04:35 N 7 16.09 Fair CLR 3 -3 65% 1 76.48 0.0
02 04:15 NW 7 16.09 Fair CLR 3 -3 65% 1 76.48 0.0
02 03:55 N 7 16.09 Fair CLR 3 -2 70% 1 76.45 0.0
02 03:35 N 9 16.09 Fair CLR 3 -3 65% 1 76.45 0.0
02 03:15 N 9 16.09 Fair CLR 3 -2 70% 1 76.45 0.0
02 02:55 N 9 16.09 Fair CLR 4 -2 65% 2 76.45 0.0
02 02:35 N 9 16.09 NULL NULL 3 -2 70% 1 76.45 0.0
02 02:15 N 9 16.09 A Few Clouds FEW070 3 -2 70% 1 76.48 0.0
02 01:55 N 7 16.09 NULL NULL 4 -2 65% 2 76.48 0.0
02 01:35 N 9 16.09 NULL NULL 3 -2 70% 1 76.48 0.0
02 01:15 N 9 16.09 Fair CLR 4 -2 65% 2 76.48 0.0
02 00:55 N 9 16.09 NULL NULL 4 -2 65% 2 76.48 0.0
02 00:35 N 7 16.09 NULL NULL 5 -2 61% 4 76.48 0.0
02 00:15 N 7 16.09 Fair CLR 6 -2 57% 5 76.45 0.0
01 23:55 N 6 16.09 NULL NULL 5 -1 66% 76.45 0.0
01 23:35 N 9 16.09 NULL NULL 6 -1 61% 4 76.45 0.0
01 23:15 N 11 16.09 Mostly Cloudy FEW065 BKN075 6 -1 61% 4 76.43 0.0
01 22:55 N 9 16.09 Overcast OVC075 6 -1 61% 4 76.43 0.0
01 22:35 N 11 16.09 Mostly Cloudy FEW060 BKN075 7 -1 57% 5 76.43 0.0
01 22:15 NW 9 16.09 NULL NULL 8 -2 50% 7 76.43 0.0
01 21:55 N 6 16.09 NULL NULL 8 -2 50% 76.4 0.0
01 21:35 NW 7 16.09 Overcast BKN080 OVC090 8 -1 53% 7 76.4 0.0
01 21:15 N 9 16.09 Overcast BKN080 OVC090 8 -1 53% 7 76.38 0.0
01 20:35 N 9 16.09 Overcast FEW070 OVC080 8 -1 53% 7 76.35 0.0
01 20:15 NW 11 16.09 Overcast OVC085 10 -2 43% 9 76.33 0.0
01 19:55 NW 11 16.09 Overcast OVC085 10 -1 47% 9 76.3 0.0
01 19:35 N 13 16.09 Mostly Cloudy FEW080 BKN090 10 -2 43% 8 76.3 0.0
01 19:15 N 17 G 26 16.09 Partly Cloudy FEW060 SCT080 10 -2 43% 8 76.28 0.0
01 18:55 N 20 16.09 Overcast OVC080 12 -1 41% 76.28 0.0
01 18:35 N 19 16.09 Overcast OVC085 12 -1 41% 76.28 0.0
01 18:15 N 17 G 30 16.09 Overcast FEW065 OVC085 11 -1 44% 76.28 0.0
01 17:55 N 17 G 30 16.09 Overcast FEW060 OVC090 12 -1 41% 76.28 0.0
01 17:35 N 20 16.09 Mostly Cloudy FEW060 FEW080 BKN090 12 -1 41% 76.28 0.0
01 17:15 N 20 16.09 Mostly Cloudy FEW060 BKN080 BKN095 12 -1 41% 76.28 0.0
01 16:55 N 22 16.09 Partly Cloudy FEW060 SCT080 12 -1 41% 76.25 0.0
01 16:35 N 24 16.09 Mostly Cloudy SCT065 BKN075 BKN085 13 0 41% 76.25 0.0
01 16:15 N 20 16.09 Overcast SCT060 OVC075 12 -1 41% 76.28 0.0
01 15:55 N 17 G 33 16.09 NULL NULL 12 -1 41% 76.28 0.0
01 15:35 N 19 16.09 Mostly Cloudy FEW060 BKN080 BKN090 12 -2 38% 76.28 0.0
01 15:15 N 20 16.09 Mostly Cloudy BKN060 BKN075 BKN085 12 -1 41% 76.28 0.0
01 14:55 N 22 16.09 Mostly Cloudy BKN060 BKN075 BKN090 11 -1 44% 76.28 0.0
01 14:35 N 15 G 24 16.09 Mostly Cloudy FEW065 SCT075 BKN085 12 -1 41% 76.28 0.0
01 14:15 N 19 G 33 16.09 Overcast BKN065 BKN075 OVC085 11 -1 44% 76.28 0.0
01 13:55 N 15 16.09 Overcast BKN065 OVC085 12 0 44% 76.28 0.0
01 13:35 N 17 16.09 Mostly Cloudy FEW055 FEW070 BKN085 13 0 41% 76.28 0.0
01 13:15 N 17 16.09 Mostly Cloudy FEW055 SCT080 BKN090 12 1 47% 76.28 0.0
01 12:55 N 24 16.09 Mostly Cloudy FEW055 SCT065 BKN075 11 0 47% 76.28 0.0
01 12:35 N 20 16.09 Partly Cloudy FEW049 SCT075 13 2 47% 76.28 0.0
01 12:15 N 17 G 33 16.09 Mostly Cloudy FEW049 SCT065 BKN075 11 0 47% 76.28 0.0
01 11:55 N 17 16.09 Mostly Cloudy FEW045 SCT050 BKN065 11 1 50% 76.28 0.0
01 11:35 N 17 G 28 16.09 Mostly Cloudy FEW037 SCT043 BKN065 12 2 51% 76.28 0.0
01 11:15 N 22 16.09 Mostly Cloudy FEW030 SCT035 BKN049 11 3 58% 76.25 0.0
01 10:55 N 17 G 26 16.09 Mostly Cloudy SCT029 BKN070 11 5 67% 76.25 0.0
01 10:35 N 13 G 24 16.09 Partly Cloudy SCT070 10 5 71% 8 76.25 0.0
01 10:15 N 13 16.09 Mostly Cloudy BKN060 9 4 71% 7 76.25 0.0
01 09:55 N 17 16.09 Partly Cloudy FEW055 SCT065 SCT085 9 4 71% 7 76.25 0.0
01 09:15 N 20 16.09 Partly Cloudy SCT080 9 3 66% 6 76.25 0.0
01 08:55 N 17 16.09 Mostly Cloudy BKN085 9 3 66% 7 76.25 0.0
01 08:35 N 17 16.09 Mostly Cloudy FEW060 BKN085 8 3 71% 6 76.25 0.0
01 08:15 N 13 16.09 Mostly Cloudy BKN085 8 2 66% 6 76.25 0.0
01 07:55 N 11 16.09 Fair CLR 7 2 71% 5 76.25 0.0
01 07:35 N 9 16.09 Fair CLR 5 1 76% 3 76.25 0.0
01 07:15 NW 7 16.09 Mostly Cloudy FEW055 BKN090 5 0 70% 4 76.25 0.0
01 06:55 W 13 16.09 Overcast SCT055 OVC090 5 0 70% 2 76.25 0.0
01 06:35 W 9 16.09 Overcast FEW055 SCT065 OVC095 4 0 75% 2 76.23 0.0
01 06:15 W 7 16.09 Overcast FEW055 SCT065 OVC085 3 1 87% 1 76.23 0.0
01 05:55 SW 11 16.09 Overcast SCT060 SCT070 OVC090 5 0 70% 3 76.23 0.0
01 05:35 W 11 16.09 Mostly Cloudy BKN060 4 0 75% 2 76.23 0.0
01 05:15 W 9 16.09 NULL NULL 3 0 81% 1 76.23 0.0
01 04:55 W 7 16.09 NULL NULL 4 -1 70% 2 76.23 0.0
01 04:35 W 9 16.09 NULL NULL 4 0 75% 2 76.23 0.0
01 04:15 W 9 16.09 Mostly Cloudy FEW075 BKN085 4 0 75% 2 76.23 0.0
01 03:55 W 13 16.09 Mostly Cloudy BKN080 BKN090 4 -1 70% 1 76.23 0.0
01 03:35 SW 11 16.09 Overcast BKN080 OVC090 4 -1 70% 2 76.23 0.0
01 03:15 SW 11 16.09 Overcast SCT060 OVC080 5 0 70% 3 76.25 0.0
01 02:55 W 7 16.09 Overcast FEW060 OVC075 5 -1 66% 4 76.25 0.0
01 02:35 NW 7 16.09 Overcast FEW055 SCT070 OVC080 5 -1 66% 4 76.25 0.0
01 02:15 Calm 16.09 Overcast FEW049 BKN065 OVC075 5 -1 66% 76.28 0.0
01 01:55 W 11 16.09 NULL NULL 5 0 70% 3 76.28 0.0
01 01:35 W 11 16.09 Overcast OVC070 5 0 70% 3 76.28 0.0
01 01:15 W 11 16.09 NULL NULL 4 -1 70% 2 76.28 0.0
01 00:55 SW 11 16.09 Partly Cloudy FEW070 FEW085 SCT120 5 -1 66% 3 76.28 0.0
01 00:35 SW 11 16.09 Partly Cloudy FEW085 SCT120 5 -1 66% 3 76.28 0.0
01 00:15 W 9 16.09 Partly Cloudy SCT085 6 -1 61% 4 76.28 0.0
30 23:55 W 9 16.09 Fair CLR 5 -1 66% 3 76.3 0.0
30 23:35 SW 11 16.09 Fair CLR 5 -1 66% 3 76.28 0.0
30 23:15 SW 9 16.09 A Few Clouds FEW080 6 -1 61% 4 76.28 0.0
30 22:55 W 9 16.09 Partly Cloudy SCT080 6 -1 61% 4 76.3 0.0
30 22:35 W 9 16.09 Mostly Cloudy BKN080 7 -2 53% 5 76.3 0.0
30 22:15 W 9 16.09 Fair CLR 8 -2 50% 7 76.33 0.0
30 21:55 W 9 16.09 Fair CLR 8 -2 50% 7 76.33 0.0
30 21:35 NW 7 16.09 Mostly Cloudy SCT070 BKN075 9 -2 46% 8 76.3 0.0
30 20:55 NW 11 16.09 Mostly Cloudy BKN065 BKN075 BKN090 8 -3 46% 6 76.28 0.0
30 20:35 NW 9 16.09 A Few Clouds FEW100 8 -3 46% 7 76.28 0.0
30 20:15 N 11 16.09 Mostly Cloudy SCT075 BKN100 8 -2 50% 6 76.25 0.0
30 19:55 N 20 16.09 Overcast SCT075 OVC090 10 -3 40% 8 76.25 0.0
30 19:35 N 22 16.09 Overcast FEW065 SCT080 OVC090 10 -3 40% 7 76.25 0.0
30 19:15 NW 22 G 33 16.09 Overcast FEW065 OVC085 11 -3 38% 76.25 0.0
30 18:55 NW 26 16.09 Overcast OVC085 10 -3 40% 7 76.23 0.0
30 18:35 N 28 16.09 Overcast OVC085 11 -3 38% 76.23 0.0
30 18:15 N 30 16.09 Overcast OVC080 11 -3 38% 76.23 0.0
30 17:55 N 33 G 44 16.09 Overcast and Breezy SCT070 OVC085 11 -3 38% 76.23 0.0
30 17:35 N 31 16.09 Overcast BKN070 OVC080 11 -3 38% 76.23 0.0
30 17:15 N 33 16.09 Overcast and Breezy OVC070 12 -3 35% 76.2 0.0
30 16:55 N 22 G 35 16.09 Overcast OVC075 12 -3 35% 76.2 0.0
30 16:35 N 31 G 43 16.09 Mostly Cloudy BKN075 12 -3 35% 76.2 0.0
30 16:15 NW 28 G 43 16.09 Mostly Cloudy BKN075 12 -4 33% 76.2 0.0
30 15:55 NW 31 G 41 16.09 Mostly Cloudy BKN070 12 -3 35% 76.2 0.0
30 15:35 N 31 G 44 16.09 Mostly Cloudy BKN065 BKN075 12 -3 35% 76.2 0.0
30 15:15 N 28 G 43 16.09 Mostly Cloudy BKN060 13 -1 38% 76.2 0.0
30 14:55 N 15 G 35 16.09 Mostly Cloudy BKN055 12 0 44% 76.23 0.0
30 14:35 N 26 16.09 Mostly Cloudy SCT047 BKN055 BKN070 11 0 47% 76.23 0.0
30 14:15 N 24 G 35 16.09 Mostly Cloudy FEW043 SCT049 BKN070 11 2 54% 76.25 0.0
30 13:55 NW 17 16.09 Mostly Cloudy BKN065 BKN080 BKN095 9 1 58% 7 76.28 0.0
30 13:35 NW 19 16.09 Overcast OVC060 9 3 66% 7 76.3 0.0
30 13:15 NW 20 16.09 Overcast OVC060 9 2 62% 6 76.33 0.0
30 12:55 NW 17 G 26 16.09 Overcast OVC060 8 3 71% 6 76.33 0.0
30 12:35 NW 20 G 31 16.09 Overcast OVC055 8 3 71% 5 76.33 0.0
30 12:15 N 20 16.09 Overcast OVC050 8 2 66% 5 76.33 0.0
30 11:55 N 19 G 31 16.09 Overcast OVC049 7 2 71% 4 76.33 0.0
30 11:35 N 26 16.09 Overcast BKN044 OVC055 7 2 71% 3 76.33 0.0
30 11:15 N 24 G 37 16.09 Overcast FEW045 BKN055 OVC065 9 2 62% 6 76.33 0.0
30 10:55 N 24 G 33 16.09 Overcast FEW046 OVC060 8 2 66% 5 76.3 0.0
30 10:35 N 26 16.09 Overcast BKN045 BKN050 OVC060 8 2 66% 5 76.3 0.0
30 10:15 N 28 16.09 Overcast BKN042 OVC049 8 2 66% 4 76.28 0.0
30 09:55 N 28 G 39 16.09 Overcast OVC039 7 1 66% 3 76.28 0.0
30 09:35 N 30 G 41 16.09 Overcast BKN038 OVC060 8 0 57% 4 76.28 0.0
30 09:15 N 30 16.09 Overcast OVC039 8 1 62% 4 76.25 0.0
30 08:55 NE 30 16.09 Overcast OVC040 8 0 57% 4 76.25 0.0
30 08:35 N 24 16.09 Overcast OVC041 8 1 62% 5 76.25 0.0
30 08:15 N 24 16.09 Overcast OVC043 8 2 66% 5 76.25 0.0
30 07:55 NW 20 16.09 Overcast OVC044 9 5 76% 6 76.25 0.0
30 07:35 W 9 16.09 Overcast BKN043 BKN050 OVC120 9 6 82% 8 76.25 0.0
30 07:15 Calm 16.09 Overcast OVC041 9 5 76% 76.2 0.0
30 06:55 W 7 16.09 Overcast BKN042 OVC048 9 5 76% 8 76.23 0.0
30 06:35 SW 9 16.09 Overcast BKN048 OVC055 9 5 76% 8 76.2 0.0
30 06:15 Calm 16.09 Overcast FEW045 OVC050 8 5 82% 76.2 0.0
30 05:55 Calm 16.09 Overcast BKN055 OVC070 8 4 76% 76.2 0.0
30 05:35 Calm 16.09 Overcast FEW060 BKN075 OVC085 8 4 76% 76.2 0.0
30 05:15 N 7 16.09 Overcast OVC085 8 4 76% 7 76.17 0.0
30 04:55 NW 9 16.09 Overcast FEW065 BKN080 OVC095 9 3 66% 8 76.23 0.0
30 04:35 W 11 16.09 Mostly Cloudy FEW046 SCT055 BKN065 9 3 66% 8 76.25 0.0
30 04:15 W 13 16.09 Overcast FEW043 OVC060 8 3 71% 6 76.28 0.0
30 03:55 W 11 16.09 Overcast OVC060 8 3 71% 6 76.28 0.0
30 03:35 W 9 16.09 Overcast SCT060 OVC100 7 2 71% 5 76.25 0.0
30 03:15 SW 11 16.09 Overcast OVC110 8 1 62% 6 76.23 0.0
30 02:55 SW 11 16.09 Mostly Cloudy SCT075 BKN110 8 1 62% 6 76.25 0.0
30 02:35 SW 11 16.09 Overcast BKN075 OVC085 8 1 62% 6 76.25 0.0
30 02:15 SW 11 16.09 Overcast SCT070 OVC085 8 1 62% 6 76.28 0.0
30 01:55 SW 11 16.09 Overcast SCT075 OVC090 9 1 58% 8 76.28 0.0
30 01:35 SW 9 16.09 Mostly Cloudy SCT075 BKN085 8 1 62% 7 76.28 0.0
30 01:15 SW 7 16.09 Overcast BKN075 OVC090 8 0 57% 7 76.28 0.0
30 00:55 SW 9 16.09 Partly Cloudy FEW080 SCT095 8 1 62% 7 76.3 0.0
30 00:35 SW 9 16.09 Mostly Cloudy BKN095 8 0 57% 7 76.3 0.0
30 00:20 SW 11 16.09 Overcast OVC100 8 0 57% 6 76.3 0.0
29 23:30 SW 9 16.09 Overcast OVC070 10 -2 43% 9 76.3 0.0
29 23:15 SW 9 16.09 Overcast BKN075 OVC100 10 -2 43% 9 76.33 0.0
29 22:55 SW 9 16.09 Overcast OVC100 10 -2 43% 9 76.33 0.0
29 22:35 SW 7 16.09 Overcast FEW080 BKN100 OVC120 10 -2 43% 9 76.33 0.0
29 22:15 SW 9 16.09 Mostly Cloudy FEW080 BKN110 10 -1 47% 9 76.33 0.0
29 21:55 SW 7 16.09 Mostly Cloudy SCT100 BKN120 11 -3 38% 76.33 0.0
29 21:35 SW 6 16.09 Fair CLR 11 -2 41% 76.3 0.0
29 21:15 Calm 16.09 Fair CLR 11 -1 44% 76.3 0.0
29 20:55 Calm 16.09 Fair CLR 10 -1 47% 76.3 0.0
29 20:35 Calm 16.09 Partly Cloudy SCT090 11 -2 41% 76.3 0.0
29 20:15 Calm 16.09 Mostly Cloudy BKN090 13 -3 33% 76.3 0.0
29 19:55 NW 7 16.09 Partly Cloudy SCT095 13 -3 33% 76.28 0.0
29 19:35 NW 9 16.09 Mostly Cloudy BKN095 12 -2 38% 76.28 0.0
29 19:15 N 17 16.09 Fair CLR 13 -2 36% 76.28 0.0
29 18:55 N 7 16.09 A Few Clouds FEW085 13 -2 36% 76.28 0.0
29 18:35 NW 13 G 22 16.09 Partly Cloudy FEW075 SCT085 14 -2 33% 76.3 0.0
29 18:15 N 13 G 24 16.09 Mostly Cloudy BKN075 BKN090 14 -1 36% 76.3 0.0
29 17:55 N 17 16.09 Mostly Cloudy BKN075 BKN090 13 -1 38% 76.3 0.0
29 17:35 N 22 16.09 Mostly Cloudy BKN070 BKN080 13 -1 38% 76.3 0.0
29 17:15 NW 13 G 26 16.09 Mostly Cloudy SCT070 BKN080 14 -1 36% 76.3 0.0
29 16:55 NW 20 G 35 16.09 Partly Cloudy FEW070 SCT080 14 -1 36% 76.3 0.0
29 16:35 NW 19 G 28 16.09 Partly Cloudy SCT070 SCT080 13 -2 36% 76.3 0.0
29 16:15 NW 11 G 26 16.09 A Few Clouds FEW070 FEW080 13 0 41% 76.33 0.0
29 15:55 NW 22 G 33 16.09 Partly Cloudy SCT065 SCT075 13 -1 38% 76.33 0.0
Date Time (cdt) Wind (kph) Vis. (km) Weather Sky Cond. Air Dwpt Max. Min. Relative Humidity Wind Chill (°C) Heat Index (°C) altimeter (cm) sea level (mb) 1 hr 3 hr 6 hr
6 hour
Temperature (ºC) Pressure Precipitation (cm)